Time;durP1;ratioP1;P1;durP2;ratioP2;P2;SDS_P1;SDS_P2;PMS_P1;PMS_P2;Temp;Humidity;BMP_temperature;BMP_pressure;BME280_temperature;BME280_humidity;BME280_pressure;Samples;Min_cycle;Max_cycle;Signal;HPM_P1;HPM_P2
2021/06/23 00:00:45;;;;;;;9.30;5.17;;;13.70;99.90;;;;;;5063246;28;20308;-52
2021/06/23 00:03:12;;;;;;;11.77;5.73;;;13.60;99.90;;;;;;5062291;28;20226;-50
2021/06/23 00:05:39;;;;;;;12.57;6.40;;;13.70;99.90;;;;;;5063236;28;20673;-51
2021/06/23 00:08:06;;;;;;;13.37;5.80;;;13.60;99.90;;;;;;5062360;28;20618;-51
2021/06/23 00:10:33;;;;;;;12.80;6.10;;;13.60;99.90;;;;;;5058802;28;20283;-51
2021/06/23 00:13:05;;;;;;;11.37;5.13;;;13.80;99.90;;;;;;5061502;28;20366;-51
2021/06/23 00:15:33;;;;;;;9.97;5.20;;;13.60;99.90;;;;;;5064176;28;20199;-52
2021/06/23 00:18:01;;;;;;;8.63;5.50;;;13.80;99.90;;;;;;5061380;28;20313;-52
2021/06/23 00:20:28;;;;;;;8.93;5.40;;;13.70;99.90;;;;;;5060466;28;20281;-52
2021/06/23 00:22:55;;;;;;;9.23;5.00;;;13.50;99.90;;;;;;5059419;28;20191;-52
2021/06/23 00:25:23;;;;;;;9.53;5.40;;;13.40;99.90;;;;;;5061245;28;20290;-51
2021/06/23 00:27:50;;;;;;;7.33;5.17;;;13.60;99.90;;;;;;5060359;28;20206;-52
2021/06/23 00:30:17;;;;;;;7.60;5.13;;;13.60;99.90;;;;;;5058940;28;20239;-51
2021/06/23 00:32:46;;;;;;;8.60;5.70;;;13.50;99.90;;;;;;5059251;28;20636;-51
2021/06/23 00:35:13;;;;;;;8.73;6.53;;;13.60;99.90;;;;;;5059644;28;20293;-51
2021/06/23 00:37:40;;;;;;;9.73;5.47;;;13.70;99.90;;;;;;5062282;28;20299;-52
2021/06/23 00:40:09;;;;;;;12.77;5.83;;;13.50;99.90;;;;;;5059571;28;20728;-52
2021/06/23 00:42:36;;;;;;;6.77;5.33;;;13.50;99.90;;;;;;5060469;28;20202;-53
2021/06/23 00:45:05;;;;;;;7.17;5.33;;;13.20;99.90;;;;;;5060103;28;20223;-52
2021/06/23 00:47:33;;;;;;;11.57;5.00;;;13.30;99.90;;;;;;5060850;28;20625;-52
2021/06/23 00:50:06;;;;;;;10.83;5.57;;;13.40;99.90;;;;;;5054954;28;20370;-52
2021/06/23 00:52:34;;;;;;;10.53;5.50;;;13.50;99.90;;;;;;5063278;28;20248;-52
2021/06/23 00:55:01;;;;;;;8.50;5.50;;;13.60;99.90;;;;;;5060575;28;20290;-52
2021/06/23 00:57:31;;;;;;;9.10;5.57;;;13.50;99.90;;;;;;5062162;28;20339;-52
2021/06/23 00:59:58;;;;;;;13.77;6.13;;;13.50;99.90;;;;;;5063386;28;20199;-52
2021/06/23 01:02:26;;;;;;;11.33;5.60;;;13.50;99.90;;;;;;5059328;28;20598;-52
2021/06/23 01:04:54;;;;;;;11.90;5.17;;;13.60;99.90;;;;;;5059073;28;20293;-52
2021/06/23 01:07:21;;;;;;;11.40;5.33;;;13.40;99.90;;;;;;5062135;28;20689;-52
2021/06/23 01:09:48;;;;;;;7.03;4.40;;;13.40;99.90;;;;;;5061131;28;20203;-52
2021/06/23 01:12:27;;;;;;;11.50;4.80;;;13.40;99.90;;;;;;5059996;28;20586;-52
2021/06/23 01:14:59;;;;;;;11.87;5.27;;;13.50;99.90;;;;;;5060477;28;20510;-51
2021/06/23 01:17:29;;;;;;;7.50;5.40;;;13.50;99.90;;;;;;5062616;28;20221;-53
2021/06/23 01:20:07;;;;;;;6.57;4.77;;;13.50;99.90;;;;;;5062000;28;20202;-52
2021/06/23 01:22:38;;;;;;;8.60;4.17;;;13.50;99.90;;;;;;5062717;28;20329;-52
2021/06/23 01:25:10;;;;;;;9.13;4.60;;;13.30;99.90;;;;;;5059644;28;20199;-52
2021/06/23 01:27:37;;;;;;;11.17;4.80;;;13.20;99.90;;;;;;5060857;28;20219;-53
2021/06/23 01:30:05;;;;;;;11.93;4.50;;;13.30;99.90;;;;;;5062464;28;20235;-51
2021/06/23 01:32:32;;;;;;;7.63;4.87;;;13.50;99.90;;;;;;5061997;28;20197;-54
2021/06/23 01:35:00;;;;;;;8.53;4.93;;;13.50;99.90;;;;;;5063464;28;20618;-51
2021/06/23 01:37:28;;;;;;;7.03;4.70;;;13.50;99.90;;;;;;5058404;28;20206;-54
2021/06/23 01:39:55;;;;;;;12.37;4.40;;;13.50;99.90;;;;;;5059282;28;20200;-51
2021/06/23 01:42:22;;;;;;;9.33;4.87;;;13.30;99.90;;;;;;5060502;28;20233;-51
2021/06/23 01:44:49;;;;;;;9.40;4.50;;;13.40;99.90;;;;;;5063600;28;20312;-52
2021/06/23 01:47:16;;;;;;;4.63;3.90;;;13.50;99.90;;;;;;5061368;28;20656;-52
2021/06/23 01:49:45;;;;;;;6.40;4.03;;;13.50;99.90;;;;;;5061480;28;20329;-52
2021/06/23 01:52:12;;;;;;;8.50;4.43;;;13.60;99.90;;;;;;5061400;28;20590;-52
2021/06/23 01:54:43;;;;;;;7.73;4.53;;;13.60;99.90;;;;;;5060940;28;20654;-52
2021/06/23 01:57:11;;;;;;;12.77;4.27;;;13.50;99.90;;;;;;5061385;28;20215;-52
2021/06/23 01:59:39;;;;;;;7.33;4.53;;;13.30;99.90;;;;;;5063139;28;20631;-52
2021/06/23 02:02:17;;;;;;;9.60;4.90;;;13.30;99.90;;;;;;5061367;28;20221;-52
2021/06/23 02:05:10;;;;;;;11.23;5.07;;;13.60;99.90;;;;;;5062820;28;20248;-52
2021/06/23 02:07:50;;;;;;;9.17;4.70;;;13.60;99.90;;;;;;5064972;28;20239;-51
2021/06/23 02:10:42;;;;;;;9.80;5.03;;;13.60;99.90;;;;;;5059421;28;20205;-51
2021/06/23 02:13:27;;;;;;;5.30;4.80;;;13.80;99.90;;;;;;5058486;28;20234;-51
2021/06/23 02:16:08;;;;;;;14.13;5.00;;;13.90;99.90;;;;;;5064908;28;20251;-51
2021/06/23 02:18:36;;;;;;;8.63;4.30;;;13.90;99.90;;;;;;5064864;28;20210;-52
2021/06/23 02:21:05;;;;;;;7.63;4.40;;;13.90;99.90;;;;;;5064367;28;20254;-52
2021/06/23 02:23:41;;;;;;;7.17;4.50;;;13.80;99.90;;;;;;5065187;28;20278;-52
2021/06/23 02:26:08;;;;;;;6.23;4.77;;;13.70;99.90;;;;;;5062102;28;20193;-51
2021/06/23 02:28:36;;;;;;;7.57;4.80;;;13.70;99.90;;;;;;5065355;28;20312;-52
2021/06/23 02:31:03;;;;;;;8.80;4.87;;;13.50;99.90;;;;;;5064725;28;20619;-52
2021/06/23 02:33:31;;;;;;;7.50;5.20;;;13.60;99.90;;;;;;5066081;28;20202;-52
2021/06/23 02:35:58;;;;;;;5.97;4.70;;;13.70;99.90;;;;;;5062363;28;20235;-52
2021/06/23 02:38:25;;;;;;;9.27;4.67;;;13.50;99.90;;;;;;5065340;28;20760;-52
2021/06/23 02:40:52;;;;;;;8.03;4.83;;;13.60;99.90;;;;;;5059944;28;20634;-52
2021/06/23 02:43:20;;;;;;;8.27;4.70;;;13.70;99.90;;;;;;5065802;28;20569;-52
2021/06/23 02:45:47;;;;;;;5.97;4.40;;;13.50;99.90;;;;;;5064565;28;20319;-52
2021/06/23 02:48:14;;;;;;;9.20;4.17;;;13.50;99.90;;;;;;5065972;28;20240;-52
2021/06/23 02:50:58;;;;;;;8.47;5.10;;;13.70;99.90;;;;;;5064586;28;20729;-52
2021/06/23 02:53:28;;;;;;;6.17;4.20;;;13.60;99.90;;;;;;5064426;28;20610;-52
2021/06/23 02:55:55;;;;;;;8.77;4.37;;;13.60;99.90;;;;;;5063808;28;20303;-52
2021/06/23 02:58:23;;;;;;;12.17;4.43;;;13.40;99.90;;;;;;5064214;28;20309;-52
2021/06/23 03:00:51;;;;;;;5.50;4.13;;;13.40;99.90;;;;;;5061493;28;20222;-51
2021/06/23 03:03:20;;;;;;;12.40;6.77;;;13.50;99.90;;;;;;5061393;28;20302;-51
2021/06/23 03:05:46;;;;;;;10.90;5.20;;;13.40;99.90;;;;;;5064285;28;20207;-51
2021/06/23 03:08:13;;;;;;;11.70;4.83;;;13.40;99.90;;;;;;5065187;28;20211;-51
2021/06/23 03:10:40;;;;;;;6.53;4.30;;;13.40;99.90;;;;;;5063560;28;20290;-52
2021/06/23 03:13:07;;;;;;;7.87;4.60;;;13.40;99.90;;;;;;5064707;28;20565;-52
2021/06/23 03:15:35;;;;;;;7.57;4.17;;;13.30;99.90;;;;;;5066540;28;20298;-53
2021/06/23 03:18:03;;;;;;;6.33;3.57;;;13.20;99.90;;;;;;5064901;28;20252;-51
2021/06/23 03:20:30;;;;;;;10.17;4.40;;;13.10;99.90;;;;;;5062394;28;20233;-52
2021/06/23 03:22:57;;;;;;;6.50;4.30;;;13.10;99.90;;;;;;5064330;28;20206;-51
2021/06/23 03:25:24;;;;;;;6.63;3.67;;;13.20;99.90;;;;;;5060297;28;20286;-52
2021/06/23 03:27:56;;;;;;;7.17;4.30;;;13.20;99.90;;;;;;5060657;28;20241;-51
2021/06/23 03:30:25;;;;;;;6.80;4.60;;;13.10;99.90;;;;;;5061002;28;20198;-51
2021/06/23 03:32:53;;;;;;;7.37;4.33;;;13.10;99.90;;;;;;5058229;28;20285;-52
2021/06/23 03:35:21;;;;;;;6.93;4.13;;;13.30;99.90;;;;;;5060596;28;20230;-52
2021/06/23 03:37:49;;;;;;;6.57;4.03;;;13.30;99.90;;;;;;5060391;28;20335;-51
2021/06/23 03:40:17;;;;;;;9.70;3.83;;;13.40;99.90;;;;;;5061250;28;20250;-52
2021/06/23 03:42:44;;;;;;;10.47;4.37;;;13.50;99.90;;;;;;5060782;28;20628;-52
2021/06/23 03:45:12;;;;;;;8.43;4.03;;;13.50;99.90;;;;;;5063932;28;20275;-52
2021/06/23 03:47:40;;;;;;;14.00;4.60;;;13.40;99.90;;;;;;5064867;28;20256;-53
2021/06/23 03:50:08;;;;;;;6.70;4.27;;;13.50;99.90;;;;;;5064564;28;20265;-52
2021/06/23 03:52:36;;;;;;;5.57;4.27;;;13.50;99.90;;;;;;5062628;28;20240;-52
2021/06/23 03:55:08;;;;;;;9.87;4.27;;;13.60;99.90;;;;;;5061759;28;20207;-51
2021/06/23 03:57:35;;;;;;;4.90;4.20;;;13.70;99.90;;;;;;5061912;28;20249;-51
2021/06/23 04:00:05;;;;;;;7.73;4.20;;;13.70;99.90;;;;;;5063979;28;20313;-51
2021/06/23 04:02:34;;;;;;;6.47;3.57;;;13.80;99.90;;;;;;5063143;28;20202;-52
2021/06/23 04:05:01;;;;;;;5.43;3.50;;;13.70;99.90;;;;;;5064653;28;20219;-51
2021/06/23 04:07:28;;;;;;;10.97;4.30;;;13.70;99.90;;;;;;5063356;28;20241;-52
2021/06/23 04:09:55;;;;;;;5.53;3.87;;;13.80;99.90;;;;;;5063184;28;20246;-52
2021/06/23 04:12:22;;;;;;;11.17;3.90;;;13.80;99.90;;;;;;5062598;28;20297;-51
2021/06/23 04:14:49;;;;;;;4.57;3.43;;;13.80;99.90;;;;;;5064063;28;20301;-52
2021/06/23 04:17:15;;;;;;;8.60;4.07;;;13.70;99.90;;;;;;5062971;28;20345;-53
2021/06/23 04:19:42;;;;;;;6.27;4.20;;;13.80;99.90;;;;;;5061664;28;20294;-52
2021/06/23 04:22:09;;;;;;;7.23;3.67;;;13.80;99.90;;;;;;5063753;28;20287;-52
2021/06/23 04:24:36;;;;;;;8.03;3.93;;;13.60;99.90;;;;;;5063283;28;20610;-53
2021/06/23 04:27:06;;;;;;;7.33;3.60;;;13.60;99.90;;;;;;5061379;28;20203;-50
2021/06/23 04:29:33;;;;;;;6.37;3.53;;;13.70;99.90;;;;;;5062220;28;20675;-52
2021/06/23 04:32:00;;;;;;;13.40;3.87;;;13.60;99.90;;;;;;5052200;28;20585;-52
2021/06/23 04:34:27;;;;;;;8.43;4.00;;;13.70;99.90;;;;;;5058845;28;20264;-52
2021/06/23 04:36:54;;;;;;;8.60;3.70;;;13.70;99.90;;;;;;5062470;28;20256;-51
2021/06/23 04:39:20;;;;;;;6.73;3.73;;;13.70;99.90;;;;;;5062778;28;20298;-51
2021/06/23 04:41:47;;;;;;;5.00;3.70;;;13.70;99.90;;;;;;5060836;28;20234;-51
2021/06/23 04:44:14;;;;;;;7.67;3.60;;;13.80;99.90;;;;;;5062026;28;20542;-51
2021/06/23 04:46:41;;;;;;;12.50;3.83;;;13.90;99.90;;;;;;5061532;28;20368;-52
2021/06/23 04:49:08;;;;;;;12.43;3.73;;;13.90;99.90;;;;;;5062454;28;20725;-52
2021/06/23 04:51:34;;;;;;;5.07;3.60;;;13.90;99.90;;;;;;5059558;28;20277;-52
2021/06/23 04:54:02;;;;;;;6.70;4.10;;;14.10;99.90;;;;;;5060780;28;20227;-52
2021/06/23 04:56:32;;;;;;;6.33;3.90;;;14.10;99.90;;;;;;5062049;28;20198;-52
2021/06/23 04:58:59;;;;;;;9.43;4.07;;;14.10;99.90;;;;;;5056431;28;20297;-52
2021/06/23 05:01:26;;;;;;;10.63;5.00;;;14.10;99.90;;;;;;5059058;28;20322;-51
2021/06/23 05:03:53;;;;;;;6.43;4.40;;;14.00;99.90;;;;;;5057622;28;20202;-51
2021/06/23 05:06:20;;;;;;;9.53;4.53;;;14.10;99.90;;;;;;5062958;28;20244;-52
2021/06/23 05:08:50;;;;;;;11.03;4.23;;;14.20;99.90;;;;;;5063840;28;20263;-52
2021/06/23 05:11:17;;;;;;;5.77;4.10;;;14.10;99.90;;;;;;5057354;28;20193;-52
2021/06/23 05:13:44;;;;;;;8.77;4.67;;;14.10;99.90;;;;;;5055476;28;20607;-53
2021/06/23 05:16:10;;;;;;;9.93;4.90;;;14.20;99.90;;;;;;5059661;28;20307;-51
2021/06/23 05:18:38;;;;;;;4.93;3.83;;;14.10;99.90;;;;;;5062688;28;20229;-52
2021/06/23 05:21:04;;;;;;;6.53;4.40;;;14.10;99.90;;;;;;5062397;28;20260;-52
2021/06/23 05:23:32;;;;;;;7.77;4.57;;;14.00;99.90;;;;;;5061038;28;20458;-52
2021/06/23 05:25:59;;;;;;;12.17;4.60;;;14.10;99.90;;;;;;5054244;28;20307;-52
2021/06/23 05:28:26;;;;;;;12.00;4.30;;;14.00;99.90;;;;;;5059669;28;20225;-52
2021/06/23 05:30:53;;;;;;;10.47;4.37;;;14.00;99.90;;;;;;5058438;28;20250;-52
2021/06/23 05:33:19;;;;;;;6.80;3.87;;;14.10;99.90;;;;;;5060153;28;20241;-52
2021/06/23 05:35:46;;;;;;;6.53;4.47;;;14.30;99.90;;;;;;5058635;28;20238;-53
2021/06/23 05:38:13;;;;;;;9.67;4.50;;;14.20;99.90;;;;;;5047511;28;20310;-52
2021/06/23 05:40:41;;;;;;;9.40;5.00;;;14.20;99.90;;;;;;5057039;28;20246;-52
2021/06/23 05:43:08;;;;;;;7.43;3.80;;;14.20;99.90;;;;;;5056626;28;20268;-51
2021/06/23 05:45:35;;;;;;;7.47;3.87;;;14.10;99.90;;;;;;5047785;28;20280;-52
2021/06/23 05:48:02;;;;;;;9.07;4.53;;;14.00;99.90;;;;;;5055037;28;20227;-52
2021/06/23 05:50:29;;;;;;;6.97;4.43;;;14.00;99.90;;;;;;5062324;28;20326;-52
2021/06/23 05:52:56;;;;;;;7.37;4.20;;;14.30;99.90;;;;;;5061209;28;20218;-52
2021/06/23 05:55:23;;;;;;;7.97;4.03;;;14.10;99.90;;;;;;5060218;28;20229;-52
2021/06/23 05:57:53;;;;;;;8.53;3.90;;;14.30;99.90;;;;;;5062614;28;20262;-52
2021/06/23 06:00:22;;;;;;;13.33;4.50;;;14.20;99.90;;;;;;5060816;28;20224;-51
2021/06/23 06:02:50;;;;;;;6.03;3.90;;;14.40;99.90;;;;;;5059847;28;20252;-52
2021/06/23 06:05:17;;;;;;;8.93;3.83;;;14.50;99.90;;;;;;5069342;28;20337;-50
2021/06/23 06:07:44;;;;;;;5.67;3.63;;;14.50;99.90;;;;;;5061182;28;20362;-52
2021/06/23 06:10:11;;;;;;;7.17;3.07;;;14.50;99.90;;;;;;5058716;28;20561;-52
2021/06/23 06:12:41;;;;;;;12.30;3.77;;;14.50;99.90;;;;;;5064351;28;20199;-52
2021/06/23 06:15:08;;;;;;;9.33;3.47;;;14.30;99.90;;;;;;5070558;28;20904;-52
2021/06/23 06:17:35;;;;;;;10.07;3.90;;;14.30;99.90;;;;;;5067658;28;20254;-52
2021/06/23 06:20:04;;;;;;;9.57;3.07;;;14.50;99.90;;;;;;5065740;28;20199;-51
2021/06/23 06:22:32;;;;;;;9.93;3.10;;;14.50;99.90;;;;;;5065797;28;20654;-52
2021/06/23 06:24:59;;;;;;;9.70;3.20;;;14.40;99.90;;;;;;5062253;28;20276;-52
2021/06/23 06:27:26;;;;;;;7.70;3.70;;;14.50;99.90;;;;;;5061001;28;20599;-52
2021/06/23 06:29:53;;;;;;;5.67;3.20;;;14.60;99.90;;;;;;5067152;28;20231;-51
2021/06/23 06:32:20;;;;;;;5.80;3.43;;;14.60;99.90;;;;;;5066392;28;20231;-51
2021/06/23 06:34:47;;;;;;;9.80;3.47;;;14.60;99.90;;;;;;5063212;28;20199;-52
2021/06/23 06:37:14;;;;;;;4.83;3.47;;;14.50;99.90;;;;;;5055657;28;20243;-52
2021/06/23 06:39:41;;;;;;;13.80;3.30;;;14.50;99.90;;;;;;5060845;28;20200;-52
2021/06/23 06:42:08;;;;;;;8.97;2.97;;;14.40;99.90;;;;;;5063585;28;20240;-52
2021/06/23 06:44:35;;;;;;;4.53;3.20;;;14.50;99.90;;;;;;5058859;28;20253;-52
2021/06/23 06:47:02;;;;;;;4.87;3.30;;;14.60;99.90;;;;;;5061212;28;20223;-52
2021/06/23 06:49:29;;;;;;;8.07;3.17;;;14.50;99.90;;;;;;5063486;28;20284;-52
2021/06/23 06:51:58;;;;;;;9.27;3.43;;;14.70;99.90;;;;;;5066048;28;20291;-52
2021/06/23 06:54:26;;;;;;;3.93;3.27;;;14.70;99.90;;;;;;5067744;28;20271;-52
2021/06/23 06:56:53;;;;;;;5.20;3.60;;;14.70;99.90;;;;;;5058138;28;20648;-51
2021/06/23 06:59:20;;;;;;;14.00;3.40;;;14.80;99.90;;;;;;5058050;28;20234;-52
2021/06/23 07:01:48;;;;;;;5.93;2.67;;;14.90;99.90;;;;;;5066312;28;20298;-52
2021/06/23 07:04:15;;;;;;;6.27;3.53;;;15.10;99.90;;;;;;5064687;28;20658;-53
2021/06/23 07:06:46;;;;;;;5.37;2.50;;;15.20;99.90;;;;;;5063184;28;20229;-53
2021/06/23 07:09:16;;;;;;;10.20;3.63;;;15.10;99.90;;;;;;5062898;28;20387;-52
2021/06/23 07:11:44;;;;;;;9.73;3.07;;;15.20;99.90;;;;;;5060004;28;20197;-53
2021/06/23 07:14:10;;;;;;;9.47;3.47;;;15.10;99.90;;;;;;5065746;28;20215;-52
2021/06/23 07:16:37;;;;;;;7.07;2.67;;;15.00;99.90;;;;;;5065142;28;20223;-52
2021/06/23 07:19:04;;;;;;;7.13;3.10;;;15.10;99.90;;;;;;5065235;28;20224;-52
2021/06/23 07:21:32;;;;;;;6.80;3.43;;;15.30;99.90;;;;;;5068255;28;20620;-53
2021/06/23 07:23:58;;;;;;;8.17;2.90;;;15.30;99.90;;;;;;5069327;28;20227;-52
2021/06/23 07:26:26;;;;;;;6.20;2.97;;;15.50;99.90;;;;;;5061159;28;20224;-52
2021/06/23 07:28:55;;;;;;;8.87;3.10;;;15.30;99.90;;;;;;5059930;28;20268;-52
2021/06/23 07:36:42;;;;;;;7.93;3.63;;;15.60;99.90;;;;;;5063143;28;20289;-52
2021/06/23 07:39:11;;;;;;;5.27;2.60;;;15.60;99.90;;;;;;5059772;28;20617;-52
2021/06/23 07:41:40;;;;;;;5.50;2.60;;;15.30;99.90;;;;;;5062148;28;20224;-52
2021/06/23 07:44:09;;;;;;;7.90;3.37;;;15.60;99.90;;;;;;5062360;28;20231;-52
2021/06/23 07:49:41;;;;;;;5.13;2.50;;;15.60;99.90;;;;;;5060846;28;20678;-52
2021/06/23 08:11:34;;;;;;;8.20;2.97;;;15.90;99.90;;;;;;5055985;28;20223;-52
2021/06/23 08:14:03;;;;;;;5.37;3.07;;;15.70;99.90;;;;;;5064887;28;20313;-53
2021/06/23 08:16:35;;;;;;;9.20;2.70;;;15.80;99.90;;;;;;5062242;28;20228;-53
2021/06/23 08:19:03;;;;;;;10.70;2.90;;;16.20;99.90;;;;;;5056026;28;20570;-52
2021/06/23 08:21:30;;;;;;;4.20;2.17;;;16.30;97.20;;;;;;5058313;28;20223;-53
2021/06/23 08:23:57;;;;;;;8.83;2.73;;;16.30;91.20;;;;;;5056784;28;20256;-53
2021/06/23 08:26:24;;;;;;;7.33;2.93;;;16.00;95.40;;;;;;5056054;28;20690;-53
2021/06/23 08:28:51;;;;;;;7.33;2.70;;;16.20;97.90;;;;;;5056600;28;20296;-52
2021/06/23 08:31:18;;;;;;;5.20;2.60;;;16.50;86.70;;;;;;5060991;28;20262;-53
2021/06/23 08:33:45;;;;;;;7.60;2.57;;;16.60;88.60;;;;;;5059906;28;20220;-53
2021/06/23 08:36:12;;;;;;;7.30;2.60;;;16.50;86.50;;;;;;5060697;28;20203;-53
2021/06/23 08:38:39;;;;;;;6.10;2.80;;;16.60;86.60;;;;;;5061740;28;20379;-53
2021/06/23 08:41:05;;;;;;;7.43;2.63;;;16.40;85.50;;;;;;5056489;28;20331;-52
2021/06/23 08:43:32;;;;;;;3.33;2.00;;;16.60;91.40;;;;;;5055216;28;20207;-52
2021/06/23 08:46:02;;;;;;;7.43;2.47;;;16.80;83.40;;;;;;5059758;28;20232;-52
2021/06/23 08:48:31;;;;;;;6.03;2.30;;;16.80;64.50;;;;;;5052870;28;20246;-52
2021/06/23 08:51:05;;;;;;;3.33;2.07;;;16.90;65.50;;;;;;5056744;28;20334;-52
2021/06/23 08:53:34;;;;;;;3.93;2.03;;;17.00;59.00;;;;;;5063542;28;20578;-52
2021/06/23 08:56:02;;;;;;;8.10;1.80;;;16.80;52.40;;;;;;5060252;28;20637;-52
2021/06/23 08:58:30;;;;;;;7.33;2.10;;;16.80;52.80;;;;;;5062889;28;20289;-52
2021/06/23 09:00:57;;;;;;;5.13;2.27;;;16.50;53.70;;;;;;5062500;28;20200;-52
2021/06/23 09:03:25;;;;;;;7.50;2.27;;;16.50;56.80;;;;;;5059431;28;20301;-52
2021/06/23 09:05:56;;;;;;;4.60;2.47;;;16.90;63.90;;;;;;5061704;28;20261;-52
2021/06/23 09:08:36;;;;;;;6.50;2.40;;;16.80;55.50;;;;;;5059797;28;20248;-52
2021/06/23 09:11:19;;;;;;;7.23;2.20;;;16.90;50.20;;;;;;5059383;28;20652;-52
2021/06/23 09:13:46;;;;;;;6.53;2.43;;;16.70;49.90;;;;;;5063661;28;20263;-51
2021/06/23 09:16:13;;;;;;;6.03;2.57;;;16.60;54.20;;;;;;5059940;28;20194;-52
2021/06/23 09:18:42;;;;;;;7.60;2.50;;;16.60;58.60;;;;;;5060647;28;20212;-52
2021/06/23 09:21:19;;;;;;;2.90;2.07;;;16.70;63.90;;;;;;5058207;28;20617;-51
2021/06/23 09:23:54;;;;;;;8.47;2.63;;;16.90;62.30;;;;;;5060215;28;20687;-52
2021/06/23 09:26:35;;;;;;;4.00;2.37;;;17.00;60.60;;;;;;5055626;28;20320;-52
2021/06/23 09:29:09;;;;;;;8.33;2.50;;;17.20;55.90;;;;;;5059244;28;20295;-53
2021/06/23 09:31:59;;;;;;;3.73;2.10;;;17.20;61.50;;;;;;5058284;28;20742;-52
2021/06/23 09:34:44;;;;;;;6.60;2.43;;;17.40;54.00;;;;;;5065631;28;20684;-52
2021/06/23 09:37:30;;;;;;;7.33;2.00;;;17.60;63.10;;;;;;5062940;28;20679;-52
2021/06/23 09:40:21;;;;;;;4.90;2.10;;;17.70;58.90;;;;;;5061630;28;20274;-52
2021/06/23 09:43:02;;;;;;;4.57;2.17;;;17.70;61.30;;;;;;5059384;28;20202;-52
2021/06/23 09:45:30;;;;;;;7.33;2.00;;;17.60;51.70;;;;;;5069663;28;20629;-52
2021/06/23 09:47:59;;;;;;;5.43;2.40;;;17.50;63.20;;;;;;5060998;28;20230;-52
2021/06/23 09:50:30;;;;;;;4.80;2.33;;;17.70;59.50;;;;;;5064352;28;20734;-52
2021/06/23 09:53:08;;;;;;;9.63;2.63;;;17.40;56.00;;;;;;5063721;28;20618;-53
2021/06/23 09:55:42;;;;;;;5.37;2.37;;;17.20;72.20;;;;;;5063765;28;20294;-52
2021/06/23 09:58:15;;;;;;;4.87;2.67;;;17.70;65.10;;;;;;5062467;28;20370;-52
2021/06/23 10:01:03;;;;;;;6.10;2.27;;;17.50;62.00;;;;;;5062348;28;20232;-53
2021/06/23 10:03:52;;;;;;;5.27;2.60;;;17.90;75.00;;;;;;5062137;28;20256;-55
2021/06/23 10:06:19;;;;;;;5.63;2.63;;;18.10;54.60;;;;;;5059052;28;20227;-53
2021/06/23 10:08:46;;;;;;;5.03;3.23;;;17.90;56.80;;;;;;5064957;28;20212;-52
2021/06/23 10:11:13;;;;;;;2.80;2.50;;;17.90;57.00;;;;;;5061926;28;20801;-52
2021/06/23 10:13:40;;;;;;;3.60;2.20;;;18.10;51.00;;;;;;5063358;28;20858;-52
2021/06/23 10:16:07;;;;;;;4.50;2.20;;;18.30;45.10;;;;;;5062763;28;20226;-53
2021/06/23 10:18:34;;;;;;;6.73;2.60;;;18.60;52.90;;;;;;5064484;28;20680;-53
2021/06/23 10:21:06;;;;;;;3.73;2.37;;;18.70;44.00;;;;;;5059139;28;20256;-53
2021/06/23 10:23:34;;;;;;;5.50;2.53;;;18.70;43.30;;;;;;5065138;28;20206;-52
2021/06/23 10:26:01;;;;;;;6.77;2.60;;;19.00;37.60;;;;;;5066261;28;20591;-52
2021/06/23 10:28:29;;;;;;;7.83;2.43;;;18.70;37.10;;;;;;5063844;28;20254;-51
2021/06/23 10:30:58;;;;;;;4.43;2.30;;;18.60;49.40;;;;;;5059822;28;20294;-52
2021/06/23 10:33:25;;;;;;;2.53;2.23;;;18.30;51.10;;;;;;5065102;28;20235;-51
2021/06/23 10:35:52;;;;;;;5.10;2.40;;;18.30;50.10;;;;;;5063770;28;20242;-53
2021/06/23 10:38:19;;;;;;;5.13;2.80;;;18.10;51.60;;;;;;5058419;28;20275;-51
2021/06/23 10:40:46;;;;;;;6.83;3.07;;;18.30;52.30;;;;;;5063656;28;21086;-52
2021/06/23 10:43:15;;;;;;;3.00;2.30;;;18.20;46.80;;;;;;5064141;28;20746;-52
2021/06/23 10:45:44;;;;;;;5.90;2.87;;;18.40;52.50;;;;;;5061325;28;20672;-52
2021/06/23 10:48:11;;;;;;;2.57;2.37;;;18.50;47.90;;;;;;5063256;28;20684;-52
2021/06/23 10:50:38;;;;;;;3.87;3.03;;;18.40;53.70;;;;;;5063957;28;20202;-51
2021/06/23 10:53:35;;;;;;;5.70;3.03;;;18.50;52.30;;;;;;5062145;28;20648;-52
2021/06/23 10:56:05;;;;;;;8.10;3.57;;;18.50;47.70;;;;;;5056165;28;20205;-52
2021/06/23 10:58:34;;;;;;;6.23;3.40;;;18.00;57.20;;;;;;5065639;28;20267;-52
2021/06/23 11:01:12;;;;;;;8.63;3.27;;;17.70;58.10;;;;;;5066540;28;20206;-52
2021/06/23 11:04:00;;;;;;;5.47;3.17;;;17.80;61.20;;;;;;5065210;28;20287;-53
2021/06/23 11:06:41;;;;;;;6.57;3.27;;;18.30;59.10;;;;;;5060716;28;20446;-52
2021/06/23 11:09:20;;;;;;;7.00;3.87;;;18.10;51.60;;;;;;5063829;28;20273;-51
2021/06/23 11:11:48;;;;;;;6.63;3.13;;;17.90;57.50;;;;;;5059888;28;20244;-51
2021/06/23 11:14:17;;;;;;;6.37;3.53;;;18.00;57.20;;;;;;5059832;28;20542;-53
2021/06/23 11:16:44;;;;;;;8.47;3.53;;;18.20;51.70;;;;;;5054073;28;20263;-53
2021/06/23 11:19:11;;;;;;;5.10;2.20;;;18.30;47.60;;;;;;5058870;28;20216;-51
2021/06/23 11:21:39;;;;;;;5.20;2.80;;;18.40;50.60;;;;;;5055917;28;20233;-52
2021/06/23 11:24:16;;;;;;;4.60;3.10;;;18.20;46.60;;;;;;5061371;28;20200;-52
2021/06/23 11:26:48;;;;;;;3.20;2.67;;;18.60;44.00;;;;;;5062816;28;20246;-52
2021/06/23 11:29:15;;;;;;;6.03;3.60;;;18.50;38.40;;;;;;5059705;28;20278;-52
2021/06/23 11:31:46;;;;;;;6.40;3.40;;;19.00;33.30;;;;;;5067541;28;20199;-52
2021/06/23 11:34:36;;;;;;;5.63;3.60;;;19.20;39.10;;;;;;5058614;28;20228;-52
2021/06/23 11:37:09;;;;;;;6.27;2.90;;;19.30;37.50;;;;;;5061759;28;20255;-52
2021/06/23 11:39:36;;;;;;;4.47;3.20;;;19.70;32.40;;;;;;5058913;28;20289;-53
2021/06/23 11:42:05;;;;;;;4.43;3.13;;;19.90;30.40;;;;;;5059781;28;20282;-51
2021/06/23 11:44:34;;;;;;;8.33;3.57;;;19.80;38.30;;;;;;5057407;28;20607;-51
2021/06/23 11:47:01;;;;;;;8.63;4.30;;;19.10;32.10;;;;;;5059464;28;20649;-52
2021/06/23 11:49:29;;;;;;;6.13;3.43;;;18.60;40.60;;;;;;5061611;28;20780;-53
2021/06/23 11:51:59;;;;;;;4.73;3.10;;;18.80;44.60;;;;;;5054253;28;20330;-51
2021/06/23 11:54:26;;;;;;;5.80;3.10;;;19.00;44.50;;;;;;5058204;28;20296;-51
2021/06/23 11:56:53;;;;;;;3.83;3.33;;;19.10;44.90;;;;;;5060454;28;20336;-52
2021/06/23 11:59:20;;;;;;;5.70;4.00;;;19.00;43.20;;;;;;5059914;28;20233;-51
2021/06/23 12:01:47;;;;;;;6.23;3.73;;;19.00;36.00;;;;;;5059574;28;20404;-51
2021/06/23 12:04:14;;;;;;;4.70;3.90;;;19.00;38.10;;;;;;5060900;28;20276;-52
2021/06/23 12:06:42;;;;;;;5.83;3.60;;;19.00;41.90;;;;;;5060535;28;20261;-53
2021/06/23 12:09:09;;;;;;;8.23;4.07;;;19.20;36.80;;;;;;5057308;28;20683;-53
2021/06/23 12:11:36;;;;;;;5.80;3.40;;;19.10;38.70;;;;;;5058227;28;20258;-51
2021/06/23 12:14:03;;;;;;;5.67;3.93;;;19.00;38.80;;;;;;5060166;28;20678;-52
2021/06/23 12:16:29;;;;;;;4.87;3.83;;;19.20;43.30;;;;;;5059019;28;20220;-52
2021/06/23 12:18:56;;;;;;;6.10;3.20;;;19.10;40.00;;;;;;5060028;28;20307;-51
2021/06/23 12:21:23;;;;;;;7.23;4.03;;;19.20;41.10;;;;;;5059361;28;20925;-51
2021/06/23 12:23:50;;;;;;;6.63;3.93;;;19.30;34.90;;;;;;5054547;28;20634;-51
2021/06/23 12:26:22;;;;;;;8.53;4.33;;;19.20;37.30;;;;;;5061663;28;20271;-52
2021/06/23 12:28:49;;;;;;;8.97;3.73;;;19.10;36.60;;;;;;5059153;28;20523;-52
2021/06/23 12:31:16;;;;;;;9.23;4.03;;;19.00;42.20;;;;;;5061491;28;20200;-51
2021/06/23 12:33:44;;;;;;;6.83;3.93;;;18.80;35.60;;;;;;5058354;28;20340;-52
2021/06/23 12:36:13;;;;;;;6.07;4.40;;;18.80;35.70;;;;;;5059556;28;20235;-52
2021/06/23 12:38:39;;;;;;;4.50;3.33;;;18.60;39.20;;;;;;5059288;28;20226;-52
2021/06/23 12:41:06;;;;;;;4.13;3.10;;;18.70;39.50;;;;;;5058235;28;20278;-51
2021/06/23 12:43:33;;;;;;;5.97;3.63;;;19.10;37.70;;;;;;5062914;28;20266;-52
2021/06/23 12:46:01;;;;;;;4.13;3.27;;;19.30;30.60;;;;;;5052201;28;20203;-52
2021/06/23 12:48:28;;;;;;;6.00;2.97;;;19.20;34.30;;;;;;5061010;28;20643;-53
2021/06/23 12:50:55;;;;;;;4.70;3.60;;;19.50;34.80;;;;;;5058986;28;20202;-52
2021/06/23 12:53:22;;;;;;;7.47;3.90;;;19.50;31.10;;;;;;5059930;28;20553;-51
2021/06/23 12:55:49;;;;;;;6.93;3.73;;;19.50;32.80;;;;;;5057352;28;20249;-51
2021/06/23 12:58:16;;;;;;;5.43;3.80;;;19.50;31.60;;;;;;5055625;28;20223;-52
2021/06/23 13:00:43;;;;;;;5.73;4.00;;;19.20;35.10;;;;;;5056956;28;20213;-52
2021/06/23 13:03:11;;;;;;;6.77;3.70;;;19.20;35.90;;;;;;5058496;28;20740;-52
2021/06/23 13:05:38;;;;;;;15.10;4.13;;;19.20;31.80;;;;;;5055107;28;20191;-52
2021/06/23 13:08:06;;;;;;;4.53;3.20;;;19.00;40.20;;;;;;5054054;28;20696;-52
2021/06/23 13:10:33;;;;;;;5.13;3.53;;;18.90;39.90;;;;;;5049842;28;20238;-52
2021/06/23 13:13:00;;;;;;;6.77;4.30;;;19.10;38.20;;;;;;5054978;28;20231;-51
2021/06/23 13:15:28;;;;;;;5.63;3.47;;;19.20;45.20;;;;;;5056186;28;20209;-52
2021/06/23 13:17:56;;;;;;;4.53;3.90;;;19.50;37.40;;;;;;5059229;28;20230;-52
2021/06/23 13:20:24;;;;;;;6.33;4.00;;;19.20;40.60;;;;;;5053029;28;20212;-53
2021/06/23 13:22:53;;;;;;;4.27;3.87;;;19.20;44.30;;;;;;5053425;28;20201;-52